ESNK/KRF METAR and TAF weather

Enter ICAO airport designator
Station Type Date Time Source
ESNK METAR 2019/04/18 20:50 UTC NOAA

ESNK 182050Z AUTO 00000KT 9999 NCD 03/M03 Q1036


Station Type Date Time Source
ESNK Decoded METAR 2019/04/18 20:50 UTC NOAA

Kramfors Flygplats, Sweden (ESNK) 63-03N 017-46E 19M
Apr 18, 2019 - 04:50 PM EDT / 2019.04.18 2050 UTC
Wind: Calm:0
Visibility: greater than 7 mile(s):0
Temperature: 37 F (3 C)
Dew Point: 26 F (-3 C)
Relative Humidity: 64%
Pressure (altimeter): 30.59 in. Hg (1036 hPa)
ob: ESNK 182050Z AUTO 00000KT 9999 NCD 03/M03 Q1036
cycle: 21

Station Type Date Time Source
ESNK TAF 2017/12/15 06:00 UTC NOAA

TAF
AMD ESNK 150654Z 1506/1521 35005KT 6000 -SN BKN016
TEMPO 1506/1521 2000 SN SG VV009

Example: see airport list